Time,TemperatureF,DewpointF,PressureIn,WindDirection,WindDirectionDegrees,WindSpeedMPH,WindSpeedGustMPH,Humidity,HourlyPrecipIn,Conditions,Clouds,dailyrainin,SoftwareType,DateUTC
2013-10-14 00:07:00,50.0,42.0,30.07,NNE,23,0.0,0.0,73,0.00,,,0.00,weatherlink.com 1.10,2013-10-14 07:07:00,
2013-10-14 00:22:00,49.6,42.0,30.07,NNE,23,0.0,0.0,74,0.00,,,0.00,weatherlink.com 1.10,2013-10-14 07:22:00,
2013-10-14 00:37:00,49.3,42.0,30.07,NNE,23,0.0,0.0,75,0.00,,,0.00,weatherlink.com 1.10,2013-10-14 07:37:00,
2013-10-14 00:52:00,49.1,42.0,30.07,NNE,23,0.0,0.0,76,0.00,,,0.00,weatherlink.com 1.10,2013-10-14 07:52:00,
2013-10-14 01:08:00,48.5,42.0,30.07,NNE,23,0.0,0.0,78,0.00,,,0.00,weatherlink.com 1.10,2013-10-14 08:08:00,
2013-10-14 01:23:00,48.5,42.0,30.07,NNE,23,0.0,0.0,79,0.00,,,0.00,weatherlink.com 1.10,2013-10-14 08:23:00,
2013-10-14 01:38:00,48.5,43.0,30.07,NNE,23,0.0,0.0,80,0.00,,,0.00,weatherlink.com 1.10,2013-10-14 08:38:00,
2013-10-14 01:53:00,47.8,42.0,30.07,NNE,23,0.0,0.0,81,0.00,,,0.00,weatherlink.com 1.10,2013-10-14 08:53:00,
2013-10-14 02:08:00,47.4,43.0,30.07,NNE,23,0.0,0.0,83,0.00,,,0.00,weatherlink.com 1.10,2013-10-14 09:08:00,
2013-10-14 02:23:00,47.4,43.0,30.07,NNE,23,0.0,0.0,83,0.00,,,0.00,weatherlink.com 1.10,2013-10-14 09:23:00,
2013-10-14 02:38:00,47.1,43.0,30.07,NNE,23,0.0,0.0,84,0.00,,,0.00,weatherlink.com 1.10,2013-10-14 09:38:00,
2013-10-14 02:53:00,46.4,42.0,30.07,NNE,23,0.0,0.0,83,0.00,,,0.00,weatherlink.com 1.10,2013-10-14 09:53:00,
2013-10-14 03:08:00,46.1,42.0,30.06,NNE,23,0.0,0.0,84,0.00,,,0.00,weatherlink.com 1.10,2013-10-14 10:08:00,
2013-10-14 03:23:00,45.9,42.0,30.06,NNE,23,0.0,0.0,85,0.00,,,0.00,weatherlink.com 1.10,2013-10-14 10:23:00,
2013-10-14 03:38:00,46.3,42.0,30.06,NNE,23,0.0,0.0,85,0.00,,,0.00,weatherlink.com 1.10,2013-10-14 10:38:00,
2013-10-14 03:53:00,45.4,41.0,30.06,NNE,23,0.0,0.0,83,0.00,,,0.00,weatherlink.com 1.10,2013-10-14 10:53:00,
2013-10-14 04:08:00,45.4,41.0,30.06,NNE,23,0.0,0.0,84,0.00,,,0.00,weatherlink.com 1.10,2013-10-14 11:08:00,
2013-10-14 04:23:00,45.2,40.0,30.06,NNE,23,0.0,1.0,83,0.00,,,0.00,weatherlink.com 1.10,2013-10-14 11:23:00,
2013-10-14 04:38:00,45.0,40.0,30.07,NNE,23,0.0,0.0,83,0.00,,,0.00,weatherlink.com 1.10,2013-10-14 11:38:00,
2013-10-14 04:53:00,45.1,40.0,30.07,NNE,23,0.0,0.0,83,0.00,,,0.00,weatherlink.com 1.10,2013-10-14 11:53:00,
2013-10-14 05:08:00,44.9,40.0,30.07,NNE,23,0.0,0.0,82,0.00,,,0.00,weatherlink.com 1.10,2013-10-14 12:08:00,
2013-10-14 05:23:00,44.8,40.0,30.07,NNE,23,0.0,0.0,82,0.00,,,0.00,weatherlink.com 1.10,2013-10-14 12:23:00,
2013-10-14 05:38:00,44.6,40.0,30.07,NNE,23,0.0,0.0,83,0.00,,,0.00,weatherlink.com 1.10,2013-10-14 12:38:00,
2013-10-14 05:53:00,44.3,39.0,30.07,NNE,23,0.0,0.0,83,0.00,,,0.00,weatherlink.com 1.10,2013-10-14 12:53:00,
2013-10-14 06:08:00,43.9,39.0,30.08,NNE,23,0.0,0.0,83,0.00,,,0.00,weatherlink.com 1.10,2013-10-14 13:08:00,
2013-10-14 06:23:00,44.0,39.0,30.08,NNE,23,0.0,0.0,83,0.00,,,0.00,weatherlink.com 1.10,2013-10-14 13:23:00,
2013-10-14 06:38:00,44.2,39.0,30.09,NNE,23,0.0,0.0,82,0.00,,,0.00,weatherlink.com 1.10,2013-10-14 13:38:00,
2013-10-14 06:53:00,44.3,41.0,30.09,NNE,23,0.0,0.0,89,0.00,,,0.00,weatherlink.com 1.10,2013-10-14 13:53:00,
2013-10-14 07:08:00,43.9,40.0,30.09,NNE,23,0.0,0.0,85,0.00,,,0.00,weatherlink.com 1.10,2013-10-14 14:08:00,
2013-10-14 07:23:00,43.6,40.0,30.09,NNE,23,0.0,0.0,87,0.00,,,0.00,weatherlink.com 1.10,2013-10-14 14:23:00,
2013-10-14 07:38:00,43.8,40.0,30.10,NNE,23,0.0,0.0,85,0.00,,,0.00,weatherlink.com 1.10,2013-10-14 14:38:00,
2013-10-14 07:53:00,44.7,40.0,30.10,NNE,23,0.0,0.0,82,0.00,,,0.00,weatherlink.com 1.10,2013-10-14 14:53:00,
2013-10-14 08:08:00,45.0,40.0,30.10,NNE,23,0.0,0.0,82,0.00,,,0.00,weatherlink.com 1.10,2013-10-14 15:08:00,
2013-10-14 08:23:00,46.7,41.0,30.10,NNE,23,0.0,0.0,80,0.00,,,0.00,weatherlink.com 1.10,2013-10-14 15:23:00,
2013-10-14 08:38:00,48.7,43.0,30.11,NNE,23,0.0,0.0,80,0.00,,,0.00,weatherlink.com 1.10,2013-10-14 15:38:00,
2013-10-14 08:53:00,51.6,45.0,30.11,NNE,23,0.0,0.0,77,0.00,,,0.00,weatherlink.com 1.10,2013-10-14 15:53:00,
2013-10-14 09:08:00,53.6,44.0,30.11,NNE,23,0.0,0.0,70,0.00,,,0.00,weatherlink.com 1.10,2013-10-14 16:08:00,
2013-10-14 09:23:00,56.0,43.0,30.11,NNE,30,0.0,1.0,62,0.00,,,0.00,weatherlink.com 1.10,2013-10-14 16:23:00,
2013-10-14 09:38:00,58.4,44.0,30.11,ENE,64,1.0,1.0,59,0.00,,,0.00,weatherlink.com 1.10,2013-10-14 16:38:00,
2013-10-14 09:53:00,60.3,43.0,30.11,ENE,72,0.0,1.0,53,0.00,,,0.00,weatherlink.com 1.10,2013-10-14 16:53:00,
2013-10-14 10:08:00,62.1,44.0,30.11,East,96,0.0,2.0,52,0.00,,,0.00,weatherlink.com 1.10,2013-10-14 17:08:00,
2013-10-14 10:23:00,63.4,44.0,30.10,East,80,2.0,3.0,49,0.00,,,0.00,weatherlink.com 1.10,2013-10-14 17:23:00,
2013-10-14 10:39:00,64.5,45.0,30.10,ESE,108,1.0,5.0,50,0.00,,,0.00,weatherlink.com 1.10,2013-10-14 17:39:00,
2013-10-14 10:54:00,66.2,45.0,30.10,East,91,0.0,5.0,46,0.00,,,0.00,weatherlink.com 1.10,2013-10-14 17:54:00,
2013-10-14 11:09:00,68.0,45.0,30.10,SSE,153,4.0,4.0,43,0.00,,,0.00,weatherlink.com 1.10,2013-10-14 18:09:00,
2013-10-14 11:24:00,69.2,44.0,30.09,East,96,2.0,3.0,40,0.00,,,0.00,weatherlink.com 1.10,2013-10-14 18:24:00,
2013-10-14 11:39:00,70.8,45.0,30.09,ESE,103,3.0,3.0,39,0.00,,,0.00,weatherlink.com 1.10,2013-10-14 18:39:00,
2013-10-14 11:54:00,71.3,44.0,30.09,East,95,2.0,5.0,38,0.00,,,0.00,weatherlink.com 1.10,2013-10-14 18:54:00,
2013-10-14 12:09:00,71.7,43.0,30.09,East,100,2.0,6.0,35,0.00,,,0.00,weatherlink.com 1.10,2013-10-14 19:09:00,
2013-10-14 12:24:00,72.3,42.0,30.08,East,101,4.0,7.0,34,0.00,,,0.00,weatherlink.com 1.10,2013-10-14 19:24:00,
2013-10-14 12:39:00,73.2,42.0,30.07,SE,131,5.0,5.0,33,0.00,,,0.00,weatherlink.com 1.10,2013-10-14 19:39:00,
2013-10-14 12:54:00,73.5,43.0,30.07,ESE,112,0.0,6.0,34,0.00,,,0.00,weatherlink.com 1.10,2013-10-14 19:54:00,
2013-10-14 13:09:00,74.4,42.0,30.06,SE,128,2.0,8.0,31,0.00,,,0.00,weatherlink.com 1.10,2013-10-14 20:09:00,
2013-10-14 13:24:00,74.4,42.0,30.05,East,87,6.0,8.0,31,0.00,,,0.00,weatherlink.com 1.10,2013-10-14 20:24:00,
2013-10-14 13:39:00,74.6,43.0,30.05,East,100,0.0,7.0,32,0.00,,,0.00,weatherlink.com 1.10,2013-10-14 20:39:00,
2013-10-14 13:54:00,75.6,43.0,30.04,ESE,107,2.0,5.0,31,0.00,,,0.00,weatherlink.com 1.10,2013-10-14 20:54:00,
2013-10-14 14:09:00,76.0,42.0,30.03,East,89,1.0,7.0,30,0.00,,,0.00,weatherlink.com 1.10,2013-10-14 21:09:00,
2013-10-14 14:24:00,76.7,42.0,30.02,NE,56,5.0,9.0,29,0.00,,,0.00,weatherlink.com 1.10,2013-10-14 21:24:00,
2013-10-14 14:39:00,77.3,41.0,30.02,East,98,1.0,5.0,27,0.00,,,0.00,weatherlink.com 1.10,2013-10-14 21:39:00,
2013-10-14 14:54:00,77.9,41.0,30.01,ESE,103,1.0,6.0,27,0.00,,,0.00,weatherlink.com 1.10,2013-10-14 21:54:00,
2013-10-14 15:09:00,78.0,42.0,30.01,East,83,0.0,5.0,28,0.00,,,0.00,weatherlink.com 1.10,2013-10-14 22:09:00,
2013-10-14 15:24:00,78.5,42.0,30.00,East,98,2.0,7.0,27,0.00,,,0.00,weatherlink.com 1.10,2013-10-14 22:24:00,
2013-10-14 15:39:00,78.1,41.0,30.00,ENE,74,4.0,6.0,27,0.00,,,0.00,weatherlink.com 1.10,2013-10-14 22:39:00,
2013-10-14 15:54:00,78.3,42.0,30.00,East,81,3.0,7.0,27,0.00,,,0.00,weatherlink.com 1.10,2013-10-14 22:54:00,
2013-10-14 16:09:00,79.4,43.0,29.99,ESE,112,1.0,4.0,27,0.00,,,0.00,weatherlink.com 1.10,2013-10-14 23:09:00,
2013-10-14 16:24:00,79.0,42.0,29.99,East,98,1.0,5.0,27,0.00,,,0.00,weatherlink.com 1.10,2013-10-14 23:24:00,
2013-10-14 16:39:00,79.1,40.0,29.98,SE,138,3.0,4.0,25,0.00,,,0.00,weatherlink.com 1.10,2013-10-14 23:39:00,
2013-10-14 16:54:00,78.8,41.0,29.98,ENE,77,0.0,5.0,26,0.00,,,0.00,weatherlink.com 1.10,2013-10-14 23:54:00,
2013-10-14 17:09:00,78.3,41.0,29.98,East,94,0.0,5.0,26,0.00,,,0.00,weatherlink.com 1.10,2013-10-15 00:09:00,
2013-10-14 17:24:00,77.7,39.0,29.98,SE,126,4.0,5.0,25,0.00,,,0.00,weatherlink.com 1.10,2013-10-15 00:24:00,
2013-10-14 17:39:00,77.1,40.0,29.98,ESE,108,1.0,3.0,26,0.00,,,0.00,weatherlink.com 1.10,2013-10-15 00:39:00,
2013-10-14 17:54:00,72.6,40.0,29.98,NE,37,1.0,3.0,31,0.00,,,0.00,weatherlink.com 1.10,2013-10-15 00:54:00,
2013-10-14 18:09:00,68.7,41.0,29.98,NE,39,1.0,2.0,36,0.00,,,0.00,weatherlink.com 1.10,2013-10-15 01:09:00,
2013-10-14 18:24:00,66.4,41.0,29.99,NE,43,0.0,3.0,39,0.00,,,0.00,weatherlink.com 1.10,2013-10-15 01:24:00,
2013-10-14 18:39:00,64.5,40.0,29.99,NE,43,0.0,0.0,41,0.00,,,0.00,weatherlink.com 1.10,2013-10-15 01:39:00,
2013-10-14 18:55:00,63.1,40.0,29.99,NE,34,0.0,2.0,43,0.00,,,0.00,weatherlink.com 1.10,2013-10-15 01:55:00,
2013-10-14 19:10:00,61.8,39.0,29.99,NE,34,0.0,1.0,44,0.00,,,0.00,weatherlink.com 1.10,2013-10-15 02:10:00,
2013-10-14 19:25:00,60.9,40.0,30.00,NE,36,0.0,0.0,46,0.00,,,0.00,weatherlink.com 1.10,2013-10-15 02:25:00,
2013-10-14 19:40:00,60.2,40.0,30.00,NE,36,0.0,0.0,47,0.00,,,0.00,weatherlink.com 1.10,2013-10-15 02:40:00,
2013-10-14 19:55:00,59.4,39.0,30.00,NNE,20,0.0,1.0,48,0.00,,,0.00,weatherlink.com 1.10,2013-10-15 02:55:00,
2013-10-14 20:10:00,58.9,39.0,30.01,NNE,20,0.0,0.0,48,0.00,,,0.00,weatherlink.com 1.10,2013-10-15 03:10:00,
2013-10-14 20:25:00,57.9,39.0,30.01,NNE,20,0.0,1.0,50,0.00,,,0.00,weatherlink.com 1.10,2013-10-15 03:25:00,
2013-10-14 20:40:00,57.6,38.0,30.01,NNE,20,0.0,0.0,48,0.00,,,0.00,weatherlink.com 1.10,2013-10-15 03:40:00,
2013-10-14 20:55:00,57.2,38.0,30.01,NNE,20,0.0,1.0,49,0.00,,,0.00,weatherlink.com 1.10,2013-10-15 03:55:00,
2013-10-14 21:10:00,56.5,37.0,30.01,NNE,20,0.0,1.0,49,0.00,,,0.00,weatherlink.com 1.10,2013-10-15 04:10:00,
2013-10-14 21:25:00,55.6,38.0,30.02,NNE,20,0.0,1.0,51,0.00,,,0.00,weatherlink.com 1.10,2013-10-15 04:25:00,
2013-10-14 21:40:00,55.3,38.0,30.03,NNE,20,0.0,0.0,52,0.00,,,0.00,weatherlink.com 1.10,2013-10-15 04:40:00,
2013-10-14 21:55:00,54.9,38.0,30.03,NNE,20,0.0,0.0,53,0.00,,,0.00,weatherlink.com 1.10,2013-10-15 04:55:00,
2013-10-14 22:10:00,54.7,38.0,30.04,NNE,20,0.0,0.0,54,0.00,,,0.00,weatherlink.com 1.10,2013-10-15 05:10:00,
2013-10-14 22:25:00,54.0,39.0,30.04,NNE,20,0.0,0.0,58,0.00,,,0.00,weatherlink.com 1.10,2013-10-15 05:25:00,
2013-10-14 22:40:00,53.5,40.0,30.04,NNE,20,0.0,0.0,61,0.00,,,0.00,weatherlink.com 1.10,2013-10-15 05:40:00,
2013-10-14 22:55:00,52.7,40.0,30.04,NNE,20,0.0,0.0,62,0.00,,,0.00,weatherlink.com 1.10,2013-10-15 05:55:00,
2013-10-14 23:10:00,52.4,39.0,30.04,NNE,20,0.0,0.0,61,0.00,,,0.00,weatherlink.com 1.10,2013-10-15 06:10:00,
2013-10-14 23:25:00,52.2,40.0,30.04,NNE,20,0.0,0.0,63,0.00,,,0.00,weatherlink.com 1.10,2013-10-15 06:25:00,
2013-10-14 23:40:00,51.8,39.0,30.04,NNE,20,0.0,1.0,61,0.00,,,0.00,weatherlink.com 1.10,2013-10-15 06:40:00,
2013-10-14 23:55:00,51.6,38.0,30.03,NNE,20,0.0,1.0,61,0.00,,,0.00,weatherlink.com 1.10,2013-10-15 06:55:00,